Time;durP1;ratioP1;P1;durP2;ratioP2;P2;SDS_P1;SDS_P2;PMS_P1;PMS_P2;Temp;Humidity;BMP_temperature;BMP_pressure;BME280_temperature;BME280_humidity;BME280_pressure;Samples;Min_cycle;Max_cycle;Signal;HPM_P1;HPM_P2
2022/12/25 00:02:04;;;;;;;5.37;1.83;;;9.90;19.90;;;;;;5095886;28;20516;-46
2022/12/25 00:04:30;;;;;;;3.60;1.60;;;9.90;59.10;;;;;;5097362;28;20214;-45
2022/12/25 00:06:55;;;;;;;2.73;2.30;;;9.90;56.20;;;;;;5097261;28;20176;-46
2022/12/25 00:09:21;;;;;;;4.30;2.33;;;9.90;63.00;;;;;;5096780;28;20185;-45
2022/12/25 00:11:47;;;;;;;3.07;2.20;;;9.80;32.60;;;;;;5095701;28;20196;-47
2022/12/25 00:14:12;;;;;;;2.90;2.30;;;9.80;93.90;;;;;;5097671;28;20253;-45
2022/12/25 00:16:38;;;;;;;3.67;2.00;;;9.80;99.90;;;;;;5097904;28;20252;-45
2022/12/25 00:19:04;;;;;;;3.90;2.20;;;9.90;99.90;;;;;;5096820;28;20176;-47
2022/12/25 00:21:30;;;;;;;2.10;1.70;;;9.80;82.80;;;;;;5098021;28;20482;-46
2022/12/25 00:23:57;;;;;;;4.13;2.03;;;9.80;86.30;;;;;;5098555;28;20199;-45
2022/12/25 00:26:24;;;;;;;2.43;2.23;;;9.80;85.00;;;;;;5096859;28;20534;-46
2022/12/25 00:28:54;;;;;;;2.40;1.80;;;9.80;71.00;;;;;;5095790;28;20587;-45
2022/12/25 00:31:21;;;;;;;2.43;1.90;;;9.80;99.90;;;;;;5095881;28;20434;-45
2022/12/25 00:33:47;;;;;;;2.50;1.80;;;9.80;99.90;;;;;;5094412;28;20503;-47
2022/12/25 00:36:15;;;;;;;2.30;1.77;;;9.80;99.90;;;;;;5095690;28;20888;-44
2022/12/25 00:38:41;;;;;;;2.93;1.77;;;9.80;99.90;;;;;;5095893;28;20433;-44
2022/12/25 00:41:12;;;;;;;4.70;2.20;;;9.80;99.90;;;;;;5097208;28;20410;-47
2022/12/25 00:43:37;;;;;;;2.13;1.60;;;9.80;99.90;;;;;;5096327;28;20410;-44
2022/12/25 00:46:04;;;;;;;2.37;2.00;;;9.80;99.90;;;;;;5095512;28;20808;-49
2022/12/25 00:48:30;;;;;;;2.80;2.03;;;9.80;99.90;;;;;;5095961;28;20411;-47
2022/12/25 00:50:58;;;;;;;2.03;1.50;;;9.80;99.90;;;;;;5096055;28;20871;-46
2022/12/25 00:53:24;;;;;;;3.23;2.27;;;9.80;99.90;;;;;;5095593;28;20567;-46
2022/12/25 00:55:58;;;;;;;3.33;2.27;;;9.80;99.90;;;;;;5095803;28;20678;-47
2022/12/25 00:58:26;;;;;;;2.63;2.37;;;9.90;99.90;;;;;;5093744;28;20713;-45
2022/12/25 01:00:52;;;;;;;3.80;2.90;;;9.80;99.90;;;;;;5095249;28;20421;-47
2022/12/25 01:03:17;;;;;;;4.63;3.07;;;9.90;99.90;;;;;;5094143;28;20690;-45
2022/12/25 01:05:52;;;;;;;3.70;3.00;;;9.90;99.90;;;;;;5095380;28;20252;-45
2022/12/25 01:08:18;;;;;;;4.67;2.70;;;9.90;99.90;;;;;;5095056;28;20597;-48
2022/12/25 01:10:43;;;;;;;3.47;2.40;;;9.90;99.90;;;;;;5096883;28;20455;-46
2022/12/25 01:13:09;;;;;;;3.03;2.30;;;9.90;99.90;;;;;;5096658;28;20561;-44
2022/12/25 01:15:36;;;;;;;3.00;2.20;;;9.90;99.90;;;;;;5096875;28;20192;-45
2022/12/25 01:18:01;;;;;;;3.30;2.30;;;9.90;71.50;;;;;;5097123;28;20602;-45
2022/12/25 01:20:27;;;;;;;2.60;2.27;;;9.90;59.80;;;;;;5097030;28;20425;-45
2022/12/25 01:22:53;;;;;;;3.00;2.10;;;9.90;36.00;;;;;;5096707;28;20180;-45
2022/12/25 01:25:18;;;;;;;3.03;1.93;;;10.00;26.90;;;;;;5096495;28;20290;-44
2022/12/25 01:27:44;;;;;;;5.13;2.13;;;9.90;9.80;;;;;;5096960;28;20220;-45
2022/12/25 01:30:10;;;;;;;3.30;2.03;;;9.90;74.50;;;;;;5097231;28;20180;-47
2022/12/25 01:32:36;;;;;;;4.13;2.50;;;9.90;96.20;;;;;;5097529;28;20187;-45
2022/12/25 01:35:01;;;;;;;3.20;2.50;;;10.00;24.10;;;;;;5096753;28;20845;-44
2022/12/25 01:37:27;;;;;;;3.77;2.23;;;10.00;1.00;;;;;;5094413;28;20227;-45
2022/12/25 01:39:53;;;;;;;3.77;2.43;;;10.00;1.00;;;;;;5094760;28;20173;-45
2022/12/25 01:42:20;;;;;;;3.83;2.30;;;10.00;19.20;;;;;;5095656;28;20262;-45
2022/12/25 01:44:46;;;;;;;3.30;2.13;;;10.00;27.00;;;;;;5092065;28;20543;-45
2022/12/25 01:47:12;;;;;;;3.70;2.53;;;10.00;6.60;;;;;;5086559;28;20495;-46
2022/12/25 01:49:40;;;;;;;2.67;2.30;;;10.00;26.40;;;;;;5081721;28;20298;-47
2022/12/25 01:52:17;;;;;;;2.87;2.40;;;10.00;59.90;;;;;;5078521;28;20423;-47
2022/12/25 01:55:08;;;;;;;4.80;1.97;;;10.00;56.80;;;;;;5074963;28;20504;-45
2022/12/25 01:57:35;;;;;;;2.97;2.00;;;10.00;54.40;;;;;;5076935;28;20489;-45
2022/12/25 02:00:01;;;;;;;3.07;2.30;;;10.00;99.90;;;;;;5075150;28;20976;-47
2022/12/25 02:02:27;;;;;;;3.30;2.67;;;10.00;99.90;;;;;;5074264;28;20430;-44
2022/12/25 02:04:57;;;;;;;2.67;2.03;;;10.00;99.90;;;;;;5075074;28;20861;-45
2022/12/25 02:07:24;;;;;;;2.80;2.50;;;10.00;99.90;;;;;;5075668;28;20990;-45
2022/12/25 02:09:51;;;;;;;3.40;1.97;;;10.00;99.90;;;;;;5074641;28;20422;-45
2022/12/25 02:12:27;;;;;;;4.83;2.77;;;9.90;99.90;;;;;;5074869;28;20806;-46
2022/12/25 02:14:55;;;;;;;3.13;2.23;;;9.90;99.90;;;;;;5074305;28;20836;-48
2022/12/25 02:17:26;;;;;;;3.90;2.40;;;9.90;99.90;;;;;;5072856;28;20467;-47
2022/12/25 02:20:23;;;;;;;3.57;2.20;;;9.90;99.90;;;;;;5074991;28;20431;-46
2022/12/25 02:23:07;;;;;;;2.50;1.90;;;9.80;99.90;;;;;;5074796;28;20418;-45
2022/12/25 02:25:36;;;;;;;3.60;2.27;;;9.80;99.90;;;;;;5074518;28;20415;-48
2022/12/25 02:28:09;;;;;;;3.10;2.20;;;9.80;99.90;;;;;;5076173;28;20723;-44
2022/12/25 02:30:39;;;;;;;2.87;1.93;;;9.80;99.90;;;;;;5074579;28;20439;-45
2022/12/25 02:35:57;;;;;;;2.53;2.30;;;9.70;99.90;;;;;;5073946;28;20418;-45
2022/12/25 02:38:37;;;;;;;2.60;1.77;;;9.70;99.90;;;;;;5073382;28;20696;-46
2022/12/25 02:41:09;;;;;;;2.80;2.10;;;9.70;99.90;;;;;;5073132;28;20416;-45
2022/12/25 03:07:03;;;;;;;2.80;1.73;;;9.60;1.00;;;;;;5078817;28;20760;-45
2022/12/25 03:12:42;;;;;;;2.80;2.10;;;9.60;1.00;;;;;;5078282;28;20480;-45
2022/12/25 03:17:55;;;;;;;3.43;2.10;;;9.60;1.00;;;;;;5079051;28;20571;-47
2022/12/25 03:28:34;;;;;;;2.77;2.00;;;9.60;1.00;;;;;;5076298;28;20426;-45
2022/12/25 03:31:12;;;;;;;2.60;2.00;;;9.60;1.00;;;;;;5076764;28;20810;-46
2022/12/25 04:38:10;;;;;;;1.90;1.70;;;9.40;1.00;;;;;;5076734;28;20473;-45
2022/12/25 04:40:35;;;;;;;2.27;1.80;;;9.40;1.00;;;;;;5077074;28;20419;-45
2022/12/25 04:43:01;;;;;;;1.83;1.53;;;9.40;1.00;;;;;;5075417;28;20173;-45
2022/12/25 04:45:27;;;;;;;1.60;1.50;;;9.40;20.00;;;;;;5076086;28;20173;-45
2022/12/25 04:47:52;;;;;;;1.93;1.50;;;9.40;35.80;;;;;;5076606;28;20186;-44
2022/12/25 04:50:18;;;;;;;2.30;1.90;;;9.40;48.10;;;;;;5077264;28;20215;-46
2022/12/25 04:52:43;;;;;;;2.13;1.47;;;9.40;81.70;;;;;;5077349;28;20260;-45
2022/12/25 04:55:10;;;;;;;2.40;1.63;;;9.40;76.50;;;;;;5076769;28;20173;-45
2022/12/25 04:57:36;;;;;;;2.53;1.57;;;9.50;51.10;;;;;;5075772;28;20276;-45
2022/12/25 05:00:02;;;;;;;2.40;1.80;;;9.50;57.00;;;;;;5076276;28;20878;-46
2022/12/25 05:02:28;;;;;;;3.00;1.90;;;9.50;51.10;;;;;;5077203;28;20177;-46
2022/12/25 05:04:53;;;;;;;1.50;1.30;;;9.50;50.30;;;;;;5087607;28;20438;-44
2022/12/25 05:07:19;;;;;;;2.47;1.87;;;9.50;67.50;;;;;;5095553;28;20214;-44
2022/12/25 05:09:44;;;;;;;1.73;1.60;;;9.50;83.40;;;;;;5095730;28;20208;-46
2022/12/25 05:12:10;;;;;;;2.73;2.00;;;9.50;53.70;;;;;;5096505;28;20263;-46
2022/12/25 05:14:36;;;;;;;2.30;2.10;;;9.50;42.70;;;;;;5095722;28;20215;-47
2022/12/25 05:17:02;;;;;;;2.03;1.80;;;9.50;38.80;;;;;;5097692;28;20208;-46
2022/12/25 05:19:27;;;;;;;1.90;1.50;;;9.50;48.70;;;;;;5097495;28;20172;-45
2022/12/25 05:21:53;;;;;;;3.00;2.70;;;9.50;54.20;;;;;;5096829;28;20548;-44
2022/12/25 05:24:19;;;;;;;1.90;1.67;;;9.50;73.40;;;;;;5097724;28;20276;-44
2022/12/25 05:26:45;;;;;;;2.90;1.53;;;9.50;88.30;;;;;;5096522;28;20470;-45
2022/12/25 05:29:11;;;;;;;2.77;1.70;;;9.50;99.90;;;;;;5095423;28;20195;-46
2022/12/25 05:31:36;;;;;;;3.53;2.20;;;9.50;99.90;;;;;;5096065;28;20212;-46
2022/12/25 05:34:02;;;;;;;2.50;1.83;;;9.50;99.90;;;;;;5096092;28;20271;-46
2022/12/25 05:36:28;;;;;;;2.63;1.67;;;9.50;99.90;;;;;;5095337;28;20207;-45
2022/12/25 05:38:53;;;;;;;2.37;1.73;;;9.50;99.90;;;;;;5095804;28;20204;-46
2022/12/25 05:41:19;;;;;;;2.70;1.63;;;9.50;99.90;;;;;;5096153;28;20575;-47
2022/12/25 05:43:45;;;;;;;2.10;1.90;;;9.50;99.90;;;;;;5096742;28;20257;-45
2022/12/25 05:46:10;;;;;;;2.60;2.00;;;9.50;98.80;;;;;;5097733;28;20196;-46
2022/12/25 05:48:37;;;;;;;1.97;1.43;;;9.50;99.90;;;;;;5096163;28;20175;-44
2022/12/25 05:51:07;;;;;;;2.00;1.70;;;9.50;99.90;;;;;;5097398;28;20203;-44
2022/12/25 05:53:33;;;;;;;1.67;1.53;;;9.50;99.90;;;;;;5097174;28;20410;-46
2022/12/25 05:56:01;;;;;;;2.30;1.73;;;9.50;99.90;;;;;;5097032;28;20414;-45
2022/12/25 05:58:28;;;;;;;2.30;1.60;;;9.60;99.90;;;;;;5096747;28;20461;-47
2022/12/25 06:00:53;;;;;;;1.90;1.40;;;9.60;99.90;;;;;;5096950;28;20456;-46
2022/12/25 06:03:19;;;;;;;2.27;1.50;;;9.60;99.90;;;;;;5096097;28;20410;-45
2022/12/25 06:05:44;;;;;;;1.90;1.50;;;9.60;99.90;;;;;;5095243;28;20198;-45
2022/12/25 06:08:10;;;;;;;2.30;1.40;;;9.60;99.90;;;;;;5093914;28;20173;-46
2022/12/25 06:10:36;;;;;;;2.40;1.70;;;9.60;99.90;;;;;;5094732;28;20192;-44
2022/12/25 06:13:06;;;;;;;2.50;1.70;;;9.60;99.90;;;;;;5095099;28;20183;-45
2022/12/25 06:15:32;;;;;;;2.37;1.53;;;9.60;99.90;;;;;;5095275;28;20470;-46
2022/12/25 06:18:07;;;;;;;2.37;1.70;;;9.60;99.90;;;;;;5094470;28;20579;-46
2022/12/25 06:20:33;;;;;;;1.70;1.43;;;9.60;99.90;;;;;;5094875;28;20168;-45
2022/12/25 06:22:59;;;;;;;4.03;1.50;;;9.60;99.90;;;;;;5096063;28;20415;-48
2022/12/25 06:25:25;;;;;;;2.87;1.60;;;9.60;94.80;;;;;;5094604;28;20418;-46
2022/12/25 06:27:50;;;;;;;2.07;1.60;;;9.60;99.90;;;;;;5094572;28;20474;-46
2022/12/25 06:30:16;;;;;;;2.83;1.43;;;9.60;99.90;;;;;;5095249;28;20183;-47
2022/12/25 06:32:42;;;;;;;2.20;1.57;;;9.60;99.90;;;;;;5095565;28;20267;-47
2022/12/25 06:35:07;;;;;;;2.80;1.40;;;9.60;99.90;;;;;;5099882;28;20203;-45
2022/12/25 06:37:33;;;;;;;2.77;1.70;;;9.60;99.90;;;;;;5100006;28;20531;-47
2022/12/25 06:39:59;;;;;;;1.50;1.40;;;9.60;99.90;;;;;;5100113;28;20527;-45
2022/12/25 06:42:24;;;;;;;2.10;1.47;;;9.60;99.90;;;;;;5099097;28;20199;-45
2022/12/25 06:44:50;;;;;;;1.50;1.30;;;9.60;99.90;;;;;;5098964;28;20195;-47
2022/12/25 06:47:16;;;;;;;2.00;1.40;;;9.60;99.90;;;;;;5100292;28;20184;-45
2022/12/25 06:49:41;;;;;;;3.20;1.80;;;9.60;99.90;;;;;;5100542;28;20176;-44
2022/12/25 06:52:07;;;;;;;1.30;1.20;;;9.60;99.90;;;;;;5100168;28;20425;-44
2022/12/25 06:54:33;;;;;;;1.60;1.43;;;9.60;99.90;;;;;;5100191;28;20199;-46
2022/12/25 06:56:58;;;;;;;2.00;1.80;;;9.60;99.90;;;;;;5100863;28;20294;-46
2022/12/25 06:59:24;;;;;;;1.90;1.37;;;9.60;96.60;;;;;;5099516;28;20199;-44
2022/12/25 07:01:55;;;;;;;1.40;1.27;;;9.60;97.30;;;;;;5098360;28;20451;-47
2022/12/25 07:04:30;;;;;;;1.70;1.60;;;9.60;99.90;;;;;;5099851;28;20184;-45
2022/12/25 07:06:59;;;;;;;1.83;1.27;;;9.70;99.90;;;;;;5100088;28;20418;-45
2022/12/25 07:09:24;;;;;;;2.07;1.87;;;9.70;89.70;;;;;;5099804;28;20789;-46
2022/12/25 07:11:50;;;;;;;2.27;2.00;;;9.60;67.40;;;;;;5099381;28;20435;-46
2022/12/25 07:14:22;;;;;;;2.27;1.83;;;9.70;51.20;;;;;;5100051;28;20263;-45
2022/12/25 07:16:48;;;;;;;2.13;1.93;;;9.70;27.30;;;;;;5097300;28;20227;-45
2022/12/25 07:19:16;;;;;;;2.47;1.80;;;9.70;34.80;;;;;;5097627;28;20840;-46
2022/12/25 07:21:41;;;;;;;2.10;1.63;;;9.70;27.30;;;;;;5098288;28;20489;-44
2022/12/25 07:24:07;;;;;;;2.33;1.60;;;9.70;31.20;;;;;;5097807;28;20525;-46
2022/12/25 07:26:33;;;;;;;2.03;1.87;;;9.70;31.80;;;;;;5098275;28;20315;-45
2022/12/25 07:28:58;;;;;;;2.77;1.90;;;9.70;32.90;;;;;;5098341;28;20261;-44
2022/12/25 07:31:24;;;;;;;2.13;1.87;;;9.70;11.70;;;;;;5098588;28;20192;-45
2022/12/25 07:33:53;;;;;;;2.60;2.07;;;9.80;13.40;;;;;;5097650;28;20563;-46
2022/12/25 07:36:18;;;;;;;2.40;2.00;;;9.80;27.00;;;;;;5098474;28;20173;-45
2022/12/25 07:38:47;;;;;;;2.63;1.70;;;9.80;36.80;;;;;;5097770;28;20746;-44
2022/12/25 07:41:13;;;;;;;2.60;1.73;;;9.80;26.40;;;;;;5098338;28;20262;-45
2022/12/25 07:43:39;;;;;;;2.00;1.63;;;9.90;17.90;;;;;;5098792;28;20422;-45
2022/12/25 07:46:05;;;;;;;2.77;2.00;;;9.90;2.70;;;;;;5099013;28;20204;-44
2022/12/25 07:48:31;;;;;;;3.93;1.90;;;9.90;1.00;;;;;;5099588;28;20463;-44
2022/12/25 07:51:02;;;;;;;1.93;1.73;;;9.90;1.00;;;;;;5099685;28;20453;-47
2022/12/25 07:53:28;;;;;;;2.50;2.17;;;10.00;1.00;;;;;;5100033;28;20172;-46
2022/12/25 07:56:02;;;;;;;2.50;2.13;;;10.00;1.00;;;;;;5099240;28;20433;-45
2022/12/25 07:58:28;;;;;;;2.97;2.60;;;10.10;1.00;;;;;;5099921;28;20458;-45
2022/12/25 08:00:54;;;;;;;3.87;2.90;;;10.20;1.00;;;;;;5099189;28;20501;-48
2022/12/25 08:03:20;;;;;;;2.90;2.70;;;10.30;1.00;;;;;;5098283;28;20509;-47
2022/12/25 08:05:46;;;;;;;2.77;2.23;;;10.50;1.00;;;;;;5096703;28;20176;-46
2022/12/25 08:08:12;;;;;;;2.50;2.07;;;10.80;1.00;;;;;;5096428;28;20181;-44
2022/12/25 08:10:37;;;;;;;2.40;2.20;;;11.10;99.90;;;;;;5097612;28;20464;-45
2022/12/25 08:13:03;;;;;;;2.77;2.20;;;11.30;1.00;;;;;;5098453;28;20438;-45
2022/12/25 08:15:31;;;;;;;2.27;1.83;;;11.40;1.00;;;;;;5097542;28;20177;-45
2022/12/25 08:17:57;;;;;;;3.83;2.40;;;11.50;1.00;;;;;;5097726;28;20580;-45
2022/12/25 08:20:23;;;;;;;2.00;1.80;;;11.70;1.00;;;;;;5098603;28;20437;-47
2022/12/25 08:22:48;;;;;;;2.23;2.03;;;11.80;99.90;;;;;;5098512;28;20169;-44
2022/12/25 08:25:14;;;;;;;2.00;1.70;;;12.00;91.00;;;;;;5097696;28;20271;-50
2022/12/25 08:27:40;;;;;;;1.97;1.73;;;12.30;1.00;;;;;;5097763;28;20515;-48
2022/12/25 08:30:06;;;;;;;3.50;2.30;;;12.60;1.00;;;;;;5097213;28;20431;-45
2022/12/25 08:32:32;;;;;;;2.13;1.90;;;12.90;99.90;;;;;;5097015;28;20674;-47
2022/12/25 08:34:58;;;;;;;1.97;1.67;;;13.10;1.00;;;;;;5096066;28;20423;-44
2022/12/25 08:37:24;;;;;;;2.10;1.90;;;13.60;1.00;;;;;;5095894;28;20462;-45
2022/12/25 08:39:49;;;;;;;2.47;2.03;;;14.20;99.90;;;;;;5095506;28;20432;-47
2022/12/25 08:42:15;;;;;;;1.80;1.70;;;14.80;1.00;;;;;;5095885;28;20180;-44
2022/12/25 08:44:41;;;;;;;2.03;1.83;;;15.30;1.00;;;;;;5095919;28;20207;-48
2022/12/25 08:47:06;;;;;;;3.00;2.30;;;15.80;1.00;;;;;;5096820;28;20180;-44
2022/12/25 08:49:32;;;;;;;2.23;2.03;;;16.40;31.10;;;;;;5096974;28;20479;-45
2022/12/25 08:51:58;;;;;;;2.27;1.90;;;16.80;1.00;;;;;;5097154;28;20190;-46
2022/12/25 08:54:24;;;;;;;3.13;2.53;;;17.40;1.00;;;;;;5097632;28;20517;-46
2022/12/25 08:56:49;;;;;;;3.07;2.77;;;17.80;99.90;;;;;;5096896;28;20272;-49
2022/12/25 08:59:15;;;;;;;3.10;2.70;;;18.30;99.90;;;;;;5098114;28;20188;-45
2022/12/25 09:01:40;;;;;;;2.60;2.40;;;18.80;62.80;;;;;;5097141;28;20207;-47
2022/12/25 09:04:06;;;;;;;3.03;2.83;;;19.60;1.00;;;;;;5097245;28;20188;-45
2022/12/25 09:06:32;;;;;;;2.87;2.57;;;20.30;1.00;;;;;;5097323;28;20258;-45
2022/12/25 09:08:57;;;;;;;3.20;2.90;;;21.00;1.00;;;;;;5096526;28;20200;-46
2022/12/25 09:11:23;;;;;;;3.20;2.90;;;21.30;1.00;;;;;;5096059;28;20195;-47
2022/12/25 09:13:49;;;;;;;3.07;2.77;;;21.30;1.00;;;;;;5094466;28;20237;-45
2022/12/25 09:19:37;;;;;;;2.80;1.70;;;22.50;1.00;;;;;;5095803;28;20229;-48
2022/12/25 09:22:03;;;;;;;1.93;1.67;;;23.80;1.00;;;;;;5094762;28;20427;-47
2022/12/25 09:24:28;;;;;;;2.73;1.77;;;24.80;1.00;;;;;;5094690;28;20582;-49
2022/12/25 09:26:54;;;;;;;8.97;1.97;;;25.70;1.00;;;;;;5094867;28;20470;-45
2022/12/25 09:29:20;;;;;;;2.60;1.47;;;26.60;1.00;;;;;;5095006;28;20184;-46
2022/12/25 09:31:45;;;;;;;2.10;1.80;;;27.30;1.00;;;;;;5096471;28;20192;-46
2022/12/25 09:34:11;;;;;;;3.47;1.53;;;27.90;1.00;;;;;;5096083;28;20434;-45
2022/12/25 09:36:37;;;;;;;3.13;1.93;;;28.50;1.00;;;;;;5091050;28;20208;-47
2022/12/25 09:39:02;;;;;;;4.30;1.83;;;29.00;1.00;;;;;;5091107;28;20180;-46
2022/12/25 09:42:03;;;;;;;5.50;1.97;;;29.60;1.00;;;;;;5057767;28;20188;-44
2022/12/25 09:44:36;;;;;;;2.90;1.70;;;30.40;1.00;;;;;;5075041;28;20472;-44
2022/12/25 09:47:05;;;;;;;1.70;1.57;;;31.20;1.00;;;;;;5075059;28;20394;-44
2022/12/25 09:49:49;;;;;;;3.50;1.70;;;31.90;1.00;;;;;;5076208;28;20416;-46
2022/12/25 09:52:22;;;;;;;3.90;2.20;;;32.60;1.00;;;;;;5074186;28;20525;-47
2022/12/25 09:55:11;;;;;;;2.40;2.10;;;33.10;1.00;;;;;;5073216;28;20641;-45
2022/12/25 09:57:38;;;;;;;2.13;1.80;;;33.50;1.00;;;;;;5074861;28;21026;-44
2022/12/25 10:00:15;;;;;;;2.57;1.70;;;34.00;1.00;;;;;;5071993;28;20418;-46
2022/12/25 10:02:59;;;;;;;3.20;2.30;;;34.40;1.00;;;;;;5072534;28;20441;-44
2022/12/25 10:05:33;;;;;;;4.60;2.03;;;34.70;1.00;;;;;;5072789;28;20473;-45
2022/12/25 10:08:14;;;;;;;6.90;2.50;;;34.80;1.00;;;;;;5072119;28;20509;-45
2022/12/25 10:11:23;;;;;;;6.73;2.27;;;35.00;1.00;;;;;;5073143;28;20492;-43
2022/12/25 10:13:52;;;;;;;2.37;1.70;;;35.30;1.00;;;;;;5073582;28;20420;-43
2022/12/25 10:16:54;;;;;;;2.70;1.83;;;36.00;1.00;;;;;;5073481;28;20435;-43
2022/12/25 10:19:50;;;;;;;2.13;1.83;;;36.40;1.00;;;;;;5071453;28;20484;-46
2022/12/25 10:22:21;;;;;;;7.00;2.13;;;36.80;1.00;;;;;;5075134;28;20526;-49
2022/12/25 10:24:52;;;;;;;4.50;1.87;;;36.70;1.00;;;;;;5074501;28;20407;-46
2022/12/25 10:27:29;;;;;;;2.80;2.00;;;36.40;1.00;;;;;;5076158;28;20844;-46
2022/12/25 10:29:58;;;;;;;2.37;1.87;;;35.80;1.00;;;;;;5076535;28;20448;-47
2022/12/25 10:32:23;;;;;;;3.57;1.77;;;35.60;1.00;;;;;;5074922;28;20447;-45
2022/12/25 10:34:49;;;;;;;4.50;1.90;;;35.10;1.00;;;;;;5074168;28;20884;-48
2022/12/25 10:37:15;;;;;;;4.70;1.60;;;34.50;1.00;;;;;;5074192;28;20189;-45
2022/12/25 10:39:42;;;;;;;3.83;1.70;;;34.10;1.00;;;;;;5074651;28;20202;-47
2022/12/25 10:42:25;;;;;;;2.70;2.20;;;34.10;1.00;;;;;;5073027;28;20423;-46
2022/12/25 10:45:06;;;;;;;4.87;2.23;;;33.90;1.00;;;;;;5072346;28;20415;-46
2022/12/25 10:47:41;;;;;;;2.60;2.00;;;33.70;1.00;;;;;;5073250;28;20470;-47
2022/12/25 10:50:17;;;;;;;2.10;1.80;;;32.90;1.00;;;;;;5073645;28;20517;-46
2022/12/25 10:52:50;;;;;;;2.30;1.70;;;32.50;1.00;;;;;;5074452;28;20496;-48
2022/12/25 10:55:19;;;;;;;2.00;1.60;;;31.90;1.00;;;;;;5074731;28;20917;-46
2022/12/25 10:57:46;;;;;;;2.60;2.00;;;31.40;1.00;;;;;;5075131;28;20427;-46
2022/12/25 11:00:23;;;;;;;2.03;1.83;;;30.40;1.00;;;;;;5075455;28;20454;-48
2022/12/25 11:02:49;;;;;;;2.23;1.70;;;29.70;1.00;;;;;;5074393;28;20409;-48
2022/12/25 11:05:32;;;;;;;2.60;1.90;;;29.10;1.00;;;;;;5075750;28;20510;-50
2022/12/25 11:08:00;;;;;;;2.27;2.07;;;28.50;1.00;;;;;;5074773;28;20931;-47
2022/12/25 11:10:25;;;;;;;2.43;1.97;;;28.10;1.00;;;;;;5074869;28;20408;-47
2022/12/25 11:12:51;;;;;;;3.40;2.30;;;28.10;1.00;;;;;;5076101;28;20510;-46
2022/12/25 11:15:37;;;;;;;3.00;1.73;;;28.50;1.00;;;;;;5075490;28;20193;-46
2022/12/25 11:18:32;;;;;;;2.30;2.10;;;29.70;1.00;;;;;;5090563;28;20435;-47
2022/12/25 11:21:01;;;;;;;2.87;2.57;;;30.80;1.00;;;;;;5094682;28;20579;-46
2022/12/25 11:23:29;;;;;;;3.03;2.73;;;31.20;1.00;;;;;;5099237;28;20397;-45
2022/12/25 11:25:57;;;;;;;2.70;2.50;;;30.80;1.00;;;;;;5098761;28;20445;-47
2022/12/25 11:28:24;;;;;;;3.50;2.30;;;30.40;1.00;;;;;;5099230;28;20470;-46
2022/12/25 11:30:53;;;;;;;2.77;1.90;;;30.70;1.00;;;;;;5100576;28;20419;-46
2022/12/25 11:33:20;;;;;;;2.10;1.70;;;31.50;1.00;;;;;;5099254;28;20437;-45
2022/12/25 11:35:51;;;;;;;2.33;1.70;;;32.50;1.00;;;;;;5096123;28;20430;-46
2022/12/25 11:38:18;;;;;;;2.50;1.67;;;33.10;1.00;;;;;;5098417;28;20397;-46
2022/12/25 11:40:47;;;;;;;2.00;1.70;;;33.60;1.00;;;;;;5098394;28;20422;-45
2022/12/25 11:43:43;;;;;;;1.80;1.50;;;33.60;1.00;;;;;;5097665;28;20484;-44
2022/12/25 11:46:24;;;;;;;2.27;2.07;;;33.50;1.00;;;;;;5098483;28;21004;-46
2022/12/25 11:48:56;;;;;;;1.73;1.63;;;34.00;1.00;;;;;;5098466;28;20396;-46
2022/12/25 11:51:28;;;;;;;2.00;1.70;;;34.30;1.00;;;;;;5098265;28;20410;-44
2022/12/25 11:53:58;;;;;;;1.80;1.70;;;34.40;1.00;;;;;;5099517;28;20426;-47
2022/12/25 11:56:26;;;;;;;2.90;1.80;;;34.70;1.00;;;;;;5098829;28;20471;-45
2022/12/25 11:59:02;;;;;;;1.60;1.50;;;35.50;1.00;;;;;;5099133;28;20423;-47
2022/12/25 12:01:36;;;;;;;1.70;1.60;;;36.50;1.00;;;;;;5097429;28;20807;-46
2022/12/25 12:04:06;;;;;;;2.10;1.73;;;37.60;1.00;;;;;;5097371;28;20419;-47
2022/12/25 12:06:46;;;;;;;2.53;2.07;;;38.30;1.00;;;;;;5097050;28;20425;-47
2022/12/25 12:09:29;;;;;;;2.10;1.80;;;38.80;1.00;;;;;;5098313;28;20414;-46
2022/12/25 12:12:05;;;;;;;1.87;1.70;;;39.40;1.00;;;;;;5098586;28;20546;-46
2022/12/25 12:14:52;;;;;;;1.93;1.43;;;39.80;1.00;;;;;;5098083;28;20438;-47
2022/12/25 12:17:18;;;;;;;1.93;1.70;;;39.50;1.00;;;;;;5096844;28;20488;-48
2022/12/25 12:19:44;;;;;;;5.30;2.03;;;39.20;1.00;;;;;;5095404;28;20434;-49
2022/12/25 12:22:23;;;;;;;6.10;1.97;;;39.10;1.00;;;;;;5099673;28;20410;-50
2022/12/25 12:25:02;;;;;;;3.70;2.23;;;39.50;1.00;;;;;;5099605;28;20176;-48
2022/12/25 12:27:39;;;;;;;2.40;1.73;;;39.70;1.00;;;;;;5098416;28;20532;-49
2022/12/25 12:30:16;;;;;;;2.40;2.20;;;39.10;1.00;;;;;;5097411;28;20442;-48
2022/12/25 12:32:52;;;;;;;4.13;2.10;;;38.20;1.00;;;;;;5097675;28;20430;-49
2022/12/25 12:35:22;;;;;;;3.07;2.30;;;37.40;1.00;;;;;;5098365;28;20414;-47
2022/12/25 12:38:19;;;;;;;4.33;2.43;;;37.60;1.00;;;;;;5098962;28;20422;-47
2022/12/25 12:40:56;;;;;;;4.37;2.53;;;38.00;1.00;;;;;;5099092;28;20422;-47
2022/12/25 12:43:26;;;;;;;5.93;2.90;;;39.00;1.00;;;;;;5099293;28;20422;-47
2022/12/25 12:46:03;;;;;;;4.80;2.73;;;39.70;1.00;;;;;;5097718;28;20710;-48
2022/12/25 12:48:29;;;;;;;4.87;2.57;;;39.80;1.00;;;;;;5098085;28;20499;-47
2022/12/25 12:51:08;;;;;;;8.10;2.43;;;39.80;1.00;;;;;;5096051;28;20430;-48
2022/12/25 12:53:34;;;;;;;3.30;2.60;;;39.60;1.00;;;;;;5097177;28;20522;-49
2022/12/25 12:56:12;;;;;;;2.33;1.60;;;39.80;1.00;;;;;;5095544;28;20706;-54
2022/12/25 12:58:44;;;;;;;6.17;2.53;;;40.10;1.00;;;;;;5097383;28;20495;-48
2022/12/25 13:01:28;;;;;;;3.60;2.13;;;40.20;1.00;;;;;;5097327;28;20431;-50
2022/12/25 13:04:05;;;;;;;3.00;2.70;;;40.00;1.00;;;;;;5097175;28;20480;-49
2022/12/25 13:06:50;;;;;;;3.33;2.30;;;40.20;1.00;;;;;;5096778;28;20430;-49
2022/12/25 13:09:30;;;;;;;3.07;2.50;;;40.20;1.00;;;;;;5096114;28;20460;-50
2022/12/25 13:11:56;;;;;;;3.10;2.10;;;40.20;1.00;;;;;;5096813;28;20422;-49
2022/12/25 13:14:23;;;;;;;5.70;2.97;;;40.10;1.00;;;;;;5096899;28;20556;-47
2022/12/25 13:16:51;;;;;;;3.60;2.13;;;39.90;1.00;;;;;;5096795;28;20552;-48
2022/12/25 13:19:38;;;;;;;2.33;2.03;;;39.80;1.00;;;;;;5095937;28;20414;-49
2022/12/25 13:22:05;;;;;;;4.43;4.03;;;39.10;1.00;;;;;;5094005;28;20434;-49
2022/12/25 13:24:34;;;;;;;3.67;3.37;;;39.00;1.00;;;;;;5097368;28;20821;-53
2022/12/25 13:27:00;;;;;;;5.20;3.40;;;38.90;1.00;;;;;;5095220;28;20485;-50
2022/12/25 13:29:34;;;;;;;5.50;3.37;;;38.30;1.00;;;;;;5093526;28;20418;-49
2022/12/25 13:32:02;;;;;;;3.40;2.93;;;37.80;1.00;;;;;;5096023;28;20176;-46
2022/12/25 13:34:28;;;;;;;5.10;4.10;;;37.60;1.00;;;;;;5097057;28;20414;-48
2022/12/25 13:36:55;;;;;;;5.87;3.50;;;37.50;1.00;;;;;;5096986;28;20440;-49
2022/12/25 13:39:23;;;;;;;3.73;2.83;;;37.30;1.00;;;;;;5095672;28;20446;-51
2022/12/25 13:42:09;;;;;;;7.43;2.60;;;37.00;1.00;;;;;;5094432;28;20622;-51
2022/12/25 13:45:07;;;;;;;2.50;2.20;;;36.60;1.00;;;;;;5093777;28;20501;-52
2022/12/25 13:47:35;;;;;;;3.50;2.83;;;36.20;1.00;;;;;;5093051;28;21104;-48
2022/12/25 13:50:25;;;;;;;5.23;2.60;;;36.10;1.00;;;;;;5094531;28;20813;-48
2022/12/25 13:52:52;;;;;;;3.10;2.30;;;35.80;1.00;;;;;;5094711;28;21048;-47
2022/12/25 13:55:21;;;;;;;2.43;2.17;;;35.30;1.00;;;;;;5092635;28;20967;-49
2022/12/25 13:58:02;;;;;;;2.60;2.27;;;34.70;1.00;;;;;;5091957;28;20457;-47
2022/12/25 14:00:34;;;;;;;3.10;2.30;;;33.90;1.00;;;;;;5092977;28;20487;-48
2022/12/25 14:03:00;;;;;;;2.70;2.30;;;33.00;1.00;;;;;;5089594;28;20419;-48
2022/12/25 14:05:29;;;;;;;2.27;2.07;;;32.00;1.00;;;;;;5073163;28;20474;-43
2022/12/25 14:07:58;;;;;;;2.67;2.00;;;30.90;1.00;;;;;;5073833;28;20285;-44
2022/12/25 14:10:26;;;;;;;1.70;1.60;;;30.00;1.00;;;;;;5073695;28;20498;-43
2022/12/25 14:12:54;;;;;;;3.60;2.00;;;29.20;1.00;;;;;;5074634;28;20975;-44
2022/12/25 14:15:21;;;;;;;1.97;1.70;;;28.60;1.00;;;;;;5074315;28;20443;-45
2022/12/25 14:17:48;;;;;;;2.83;1.97;;;28.10;1.00;;;;;;5072912;28;20812;-45
2022/12/25 14:20:26;;;;;;;2.23;1.70;;;27.60;1.00;;;;;;5072876;28;20488;-45
2022/12/25 14:22:54;;;;;;;2.10;1.90;;;27.10;1.00;;;;;;5075549;28;20804;-45
2022/12/25 14:25:22;;;;;;;2.13;1.70;;;26.60;1.00;;;;;;5092971;28;20426;-50
2022/12/25 14:27:49;;;;;;;2.17;1.97;;;26.20;1.00;;;;;;5095141;28;20911;-46
2022/12/25 14:30:15;;;;;;;2.30;2.00;;;25.70;1.00;;;;;;5095275;28;20680;-44
2022/12/25 14:32:49;;;;;;;2.00;1.80;;;25.20;1.00;;;;;;5095604;28;20426;-44
2022/12/25 14:35:16;;;;;;;2.13;1.93;;;24.80;1.00;;;;;;5093918;28;20414;-45
2022/12/25 14:37:41;;;;;;;2.03;1.83;;;24.30;1.00;;;;;;5094805;28;20520;-44
2022/12/25 14:40:24;;;;;;;2.33;2.00;;;24.00;1.00;;;;;;5093685;28;20777;-45
2022/12/25 14:42:56;;;;;;;2.70;2.50;;;23.60;1.00;;;;;;5081948;28;20187;-44
2022/12/25 14:45:31;;;;;;;3.30;3.00;;;23.30;1.00;;;;;;5075135;28;20707;-45
2022/12/25 14:48:01;;;;;;;4.07;3.67;;;23.00;1.00;;;;;;5074613;28;20468;-44
2022/12/25 14:50:29;;;;;;;4.00;3.60;;;22.70;1.00;;;;;;5073914;28;20745;-45
2022/12/25 14:52:55;;;;;;;3.60;3.30;;;22.40;1.00;;;;;;5080214;28;20473;-44
2022/12/25 14:55:23;;;;;;;3.50;3.03;;;22.20;1.00;;;;;;5097294;28;20405;-44
2022/12/25 14:58:15;;;;;;;3.50;2.87;;;22.00;1.00;;;;;;5097695;28;20414;-43
2022/12/25 15:00:41;;;;;;;2.80;2.40;;;21.70;1.00;;;;;;5075930;28;20435;-47